Terminal Aerodrome Forecast
Issued by NWS

Home | Current Version | Previous Version | Text Only | Print | Product List | Glossary On
Versions: 1 2 3 4 5 6 7 8 9 10 11 12 13 14 15 16 17 18 19 20 21
000
FTUS46 KMTR 221700
TAFOAK
TAF
KOAK 221736Z 2218/2324 28006KT P6SM VCSH BKN025 BKN180
     FM221830 27008KT P6SM SCT025 BKN150
     FM222100 28016KT P6SM FEW012 SCT200
     FM230700 27010KT P6SM BKN012
     FM231800 25006KT P6SM SCT012=

USA.gov is the U.S. government's official web portal to all federal, state and local government web resources and services.